sensor_id;sensor_type;location;lat;lon;timestamp;temperature;humidity
8475;DHT22;4274;52.012;8.448;2022-07-29T00:01:15;16.90;97.80
8475;DHT22;4274;52.012;8.448;2022-07-29T00:03:41;16.80;97.90
8475;DHT22;4274;52.012;8.448;2022-07-29T00:06:07;16.80;97.50
8475;DHT22;4274;52.012;8.448;2022-07-29T00:08:33;16.90;97.70
8475;DHT22;4274;52.012;8.448;2022-07-29T00:10:59;16.90;97.30
8475;DHT22;4274;52.012;8.448;2022-07-29T00:13:24;16.90;97.60
8475;DHT22;4274;52.012;8.448;2022-07-29T00:15:50;16.90;97.80
8475;DHT22;4274;52.012;8.448;2022-07-29T00:18:15;16.90;97.80
8475;DHT22;4274;52.012;8.448;2022-07-29T00:20:41;16.90;98.00
8475;DHT22;4274;52.012;8.448;2022-07-29T00:23:06;16.90;97.90
8475;DHT22;4274;52.012;8.448;2022-07-29T00:25:32;16.90;98.40
8475;DHT22;4274;52.012;8.448;2022-07-29T00:27:57;16.80;98.60
8475;DHT22;4274;52.012;8.448;2022-07-29T00:30:23;16.70;98.80
8475;DHT22;4274;52.012;8.448;2022-07-29T00:32:49;16.70;98.90
8475;DHT22;4274;52.012;8.448;2022-07-29T00:35:14;16.70;98.90
8475;DHT22;4274;52.012;8.448;2022-07-29T00:37:58;16.60;99.00
8475;DHT22;4274;52.012;8.448;2022-07-29T00:40:24;16.60;99.00
8475;DHT22;4274;52.012;8.448;2022-07-29T00:42:51;16.70;98.60
8475;DHT22;4274;52.012;8.448;2022-07-29T00:45:17;16.70;99.00
8475;DHT22;4274;52.012;8.448;2022-07-29T00:47:43;16.70;98.10
8475;DHT22;4274;52.012;8.448;2022-07-29T00:50:12;16.80;98.60
8475;DHT22;4274;52.012;8.448;2022-07-29T00:52:39;16.80;98.40
8475;DHT22;4274;52.012;8.448;2022-07-29T00:55:06;16.90;98.70
8475;DHT22;4274;52.012;8.448;2022-07-29T00:57:33;16.90;98.30
8475;DHT22;4274;52.012;8.448;2022-07-29T00:59:59;16.90;98.20
8475;DHT22;4274;52.012;8.448;2022-07-29T01:02:24;16.90;97.60
8475;DHT22;4274;52.012;8.448;2022-07-29T01:04:50;17.00;97.50
8475;DHT22;4274;52.012;8.448;2022-07-29T01:07:17;17.00;96.90
8475;DHT22;4274;52.012;8.448;2022-07-29T01:09:44;17.10;96.80
8475;DHT22;4274;52.012;8.448;2022-07-29T01:12:22;17.20;96.50
8475;DHT22;4274;52.012;8.448;2022-07-29T01:14:50;17.20;96.40
8475;DHT22;4274;52.012;8.448;2022-07-29T01:17:24;17.30;96.30
8475;DHT22;4274;52.012;8.448;2022-07-29T01:22:53;17.30;96.40
8475;DHT22;4274;52.012;8.448;2022-07-29T01:30:25;17.30;96.20
8475;DHT22;4274;52.012;8.448;2022-07-29T01:32:55;17.30;96.20
8475;DHT22;4274;52.012;8.448;2022-07-29T01:35:39;17.30;96.30
8475;DHT22;4274;52.012;8.448;2022-07-29T01:38:13;17.30;96.30
8475;DHT22;4274;52.012;8.448;2022-07-29T01:40:46;17.30;96.20
8475;DHT22;4274;52.012;8.448;2022-07-29T01:43:27;17.30;96.30
8475;DHT22;4274;52.012;8.448;2022-07-29T01:45:59;17.30;96.20
8475;DHT22;4274;52.012;8.448;2022-07-29T01:48:51;17.30;96.10
8475;DHT22;4274;52.012;8.448;2022-07-29T01:51:21;17.30;96.10
8475;DHT22;4274;52.012;8.448;2022-07-29T01:53:55;17.30;95.70
8475;DHT22;4274;52.012;8.448;2022-07-29T01:56:26;17.40;95.80
8475;DHT22;4274;52.012;8.448;2022-07-29T01:58:55;17.40;94.90
8475;DHT22;4274;52.012;8.448;2022-07-29T02:01:24;17.50;94.60
8475;DHT22;4274;52.012;8.448;2022-07-29T02:03:51;17.70;94.10
8475;DHT22;4274;52.012;8.448;2022-07-29T02:06:21;17.90;94.30
8475;DHT22;4274;52.012;8.448;2022-07-29T02:08:48;17.90;94.80
8475;DHT22;4274;52.012;8.448;2022-07-29T02:11:14;17.80;94.80
8475;DHT22;4274;52.012;8.448;2022-07-29T02:13:41;17.70;95.50
8475;DHT22;4274;52.012;8.448;2022-07-29T02:16:08;17.60;95.60
8475;DHT22;4274;52.012;8.448;2022-07-29T02:18:36;17.50;95.80
8475;DHT22;4274;52.012;8.448;2022-07-29T02:21:03;17.40;95.90
8475;DHT22;4274;52.012;8.448;2022-07-29T02:23:31;17.40;95.80
8475;DHT22;4274;52.012;8.448;2022-07-29T02:25:59;17.30;95.80
8475;DHT22;4274;52.012;8.448;2022-07-29T02:28:27;17.40;96.00
8475;DHT22;4274;52.012;8.448;2022-07-29T02:30:57;17.40;95.80
8475;DHT22;4274;52.012;8.448;2022-07-29T02:33:25;17.40;95.30
8475;DHT22;4274;52.012;8.448;2022-07-29T02:35:52;17.40;95.90
8475;DHT22;4274;52.012;8.448;2022-07-29T02:38:18;17.40;96.30
8475;DHT22;4274;52.012;8.448;2022-07-29T02:41:10;17.30;96.70
8475;DHT22;4274;52.012;8.448;2022-07-29T02:43:37;17.20;97.20
8475;DHT22;4274;52.012;8.448;2022-07-29T02:46:10;17.10;97.00
8475;DHT22;4274;52.012;8.448;2022-07-29T02:48:40;17.00;97.10
8475;DHT22;4274;52.012;8.448;2022-07-29T02:51:19;16.90;97.40
8475;DHT22;4274;52.012;8.448;2022-07-29T02:53:51;16.90;97.80
8475;DHT22;4274;52.012;8.448;2022-07-29T02:56:24;16.80;97.90
8475;DHT22;4274;52.012;8.448;2022-07-29T02:58:55;16.70;98.00
8475;DHT22;4274;52.012;8.448;2022-07-29T03:01:23;16.70;97.60
8475;DHT22;4274;52.012;8.448;2022-07-29T03:03:51;16.70;98.00
8475;DHT22;4274;52.012;8.448;2022-07-29T03:06:20;16.70;98.40
8475;DHT22;4274;52.012;8.448;2022-07-29T03:08:46;16.60;98.50
8475;DHT22;4274;52.012;8.448;2022-07-29T03:11:13;16.50;98.30
8475;DHT22;4274;52.012;8.448;2022-07-29T03:13:40;16.50;98.50
8475;DHT22;4274;52.012;8.448;2022-07-29T03:16:07;16.60;98.40
8475;DHT22;4274;52.012;8.448;2022-07-29T03:18:34;16.60;98.40
8475;DHT22;4274;52.012;8.448;2022-07-29T03:21:00;16.60;98.40
8475;DHT22;4274;52.012;8.448;2022-07-29T03:23:26;16.60;98.10
8475;DHT22;4274;52.012;8.448;2022-07-29T03:25:53;16.60;98.40
8475;DHT22;4274;52.012;8.448;2022-07-29T03:28:19;16.70;98.00
8475;DHT22;4274;52.012;8.448;2022-07-29T03:30:46;16.70;98.40
8475;DHT22;4274;52.012;8.448;2022-07-29T03:33:11;16.70;98.10
8475;DHT22;4274;52.012;8.448;2022-07-29T03:35:37;16.70;98.20
8475;DHT22;4274;52.012;8.448;2022-07-29T03:38:03;16.70;98.20
8475;DHT22;4274;52.012;8.448;2022-07-29T03:40:35;16.70;98.00
8475;DHT22;4274;52.012;8.448;2022-07-29T03:43:04;16.70;97.90
8475;DHT22;4274;52.012;8.448;2022-07-29T03:45:32;16.80;98.00
8475;DHT22;4274;52.012;8.448;2022-07-29T03:48:08;16.70;98.30
8475;DHT22;4274;52.012;8.448;2022-07-29T03:50:35;16.70;97.90
8475;DHT22;4274;52.012;8.448;2022-07-29T03:53:02;16.70;98.10
8475;DHT22;4274;52.012;8.448;2022-07-29T03:55:30;16.70;98.40
8475;DHT22;4274;52.012;8.448;2022-07-29T03:57:57;16.60;98.30
8475;DHT22;4274;52.012;8.448;2022-07-29T04:00:24;16.60;98.80
8475;DHT22;4274;52.012;8.448;2022-07-29T04:02:50;16.50;98.80
8475;DHT22;4274;52.012;8.448;2022-07-29T04:05:17;16.50;99.00
8475;DHT22;4274;52.012;8.448;2022-07-29T04:07:47;16.40;98.90
8475;DHT22;4274;52.012;8.448;2022-07-29T04:10:14;16.40;99.00
8475;DHT22;4274;52.012;8.448;2022-07-29T04:12:41;16.40;99.00
8475;DHT22;4274;52.012;8.448;2022-07-29T04:15:07;16.40;99.30
8475;DHT22;4274;52.012;8.448;2022-07-29T04:17:33;16.30;99.50
8475;DHT22;4274;52.012;8.448;2022-07-29T04:19:59;16.30;99.80
8475;DHT22;4274;52.012;8.448;2022-07-29T04:22:24;16.20;99.90
8475;DHT22;4274;52.012;8.448;2022-07-29T04:24:50;16.20;99.90
8475;DHT22;4274;52.012;8.448;2022-07-29T04:27:16;16.20;99.90
8475;DHT22;4274;52.012;8.448;2022-07-29T04:29:41;16.10;99.90
8475;DHT22;4274;52.012;8.448;2022-07-29T04:32:07;16.10;99.90
8475;DHT22;4274;52.012;8.448;2022-07-29T04:34:32;16.10;99.90
8475;DHT22;4274;52.012;8.448;2022-07-29T04:36:58;16.10;99.90
8475;DHT22;4274;52.012;8.448;2022-07-29T04:39:24;16.10;99.90
8475;DHT22;4274;52.012;8.448;2022-07-29T04:41:50;16.20;99.90
8475;DHT22;4274;52.012;8.448;2022-07-29T04:44:15;16.20;99.90
8475;DHT22;4274;52.012;8.448;2022-07-29T04:46:41;16.30;99.80
8475;DHT22;4274;52.012;8.448;2022-07-29T04:49:07;16.30;99.50
8475;DHT22;4274;52.012;8.448;2022-07-29T04:51:33;16.40;99.00
8475;DHT22;4274;52.012;8.448;2022-07-29T04:53:58;16.60;99.30
8475;DHT22;4274;52.012;8.448;2022-07-29T04:56:24;16.60;99.30
8475;DHT22;4274;52.012;8.448;2022-07-29T04:58:50;16.60;99.50
8475;DHT22;4274;52.012;8.448;2022-07-29T05:01:15;16.60;99.40
8475;DHT22;4274;52.012;8.448;2022-07-29T05:03:41;16.60;99.70
8475;DHT22;4274;52.012;8.448;2022-07-29T05:06:07;16.60;99.60
8475;DHT22;4274;52.012;8.448;2022-07-29T05:08:32;16.70;99.90
8475;DHT22;4274;52.012;8.448;2022-07-29T05:10:58;16.70;99.90
8475;DHT22;4274;52.012;8.448;2022-07-29T05:13:24;16.80;99.90
8475;DHT22;4274;52.012;8.448;2022-07-29T05:15:49;16.80;99.90
8475;DHT22;4274;52.012;8.448;2022-07-29T05:18:15;16.90;99.90
8475;DHT22;4274;52.012;8.448;2022-07-29T05:20:40;16.90;99.90
8475;DHT22;4274;52.012;8.448;2022-07-29T05:23:06;16.90;99.70
8475;DHT22;4274;52.012;8.448;2022-07-29T05:25:32;16.90;99.90
8475;DHT22;4274;52.012;8.448;2022-07-29T05:27:57;17.00;99.90
8475;DHT22;4274;52.012;8.448;2022-07-29T05:30:23;16.90;99.80
8475;DHT22;4274;52.012;8.448;2022-07-29T05:32:49;16.90;99.90
8475;DHT22;4274;52.012;8.448;2022-07-29T05:35:15;16.80;99.90
8475;DHT22;4274;52.012;8.448;2022-07-29T05:37:41;16.80;99.90
8475;DHT22;4274;52.012;8.448;2022-07-29T05:40:07;16.90;99.90
8475;DHT22;4274;52.012;8.448;2022-07-29T05:42:33;16.90;99.90
8475;DHT22;4274;52.012;8.448;2022-07-29T05:45:00;16.90;99.90
8475;DHT22;4274;52.012;8.448;2022-07-29T05:47:26;17.00;99.90
8475;DHT22;4274;52.012;8.448;2022-07-29T05:49:51;17.00;99.90
8475;DHT22;4274;52.012;8.448;2022-07-29T05:52:17;17.00;99.90
8475;DHT22;4274;52.012;8.448;2022-07-29T05:54:43;17.00;99.90
8475;DHT22;4274;52.012;8.448;2022-07-29T05:57:15;16.90;99.90
8475;DHT22;4274;52.012;8.448;2022-07-29T05:59:41;17.00;99.90
8475;DHT22;4274;52.012;8.448;2022-07-29T06:02:07;16.90;99.90
8475;DHT22;4274;52.012;8.448;2022-07-29T06:04:33;16.90;99.90
8475;DHT22;4274;52.012;8.448;2022-07-29T06:06:58;16.90;99.90
8475;DHT22;4274;52.012;8.448;2022-07-29T06:09:24;16.90;99.90
8475;DHT22;4274;52.012;8.448;2022-07-29T06:11:51;16.80;99.90
8475;DHT22;4274;52.012;8.448;2022-07-29T06:14:17;16.80;99.90
8475;DHT22;4274;52.012;8.448;2022-07-29T06:16:43;16.80;99.90
8475;DHT22;4274;52.012;8.448;2022-07-29T06:19:09;16.90;99.90
8475;DHT22;4274;52.012;8.448;2022-07-29T06:21:34;16.80;99.90
8475;DHT22;4274;52.012;8.448;2022-07-29T06:24:00;16.80;99.90
8475;DHT22;4274;52.012;8.448;2022-07-29T06:26:25;16.90;99.90
8475;DHT22;4274;52.012;8.448;2022-07-29T06:28:51;16.90;99.90
8475;DHT22;4274;52.012;8.448;2022-07-29T06:31:16;17.00;99.90
8475;DHT22;4274;52.012;8.448;2022-07-29T06:33:42;17.00;99.90
8475;DHT22;4274;52.012;8.448;2022-07-29T06:36:08;17.10;99.90
8475;DHT22;4274;52.012;8.448;2022-07-29T06:38:33;17.10;99.90
8475;DHT22;4274;52.012;8.448;2022-07-29T06:41:00;17.10;99.90
8475;DHT22;4274;52.012;8.448;2022-07-29T06:43:36;17.20;99.90
8475;DHT22;4274;52.012;8.448;2022-07-29T06:46:13;17.30;99.90
8475;DHT22;4274;52.012;8.448;2022-07-29T06:48:39;17.40;99.90
8475;DHT22;4274;52.012;8.448;2022-07-29T06:51:06;17.40;99.90
8475;DHT22;4274;52.012;8.448;2022-07-29T06:53:33;17.40;99.90
8475;DHT22;4274;52.012;8.448;2022-07-29T06:55:59;17.50;99.90
8475;DHT22;4274;52.012;8.448;2022-07-29T06:58:26;17.60;99.90
8475;DHT22;4274;52.012;8.448;2022-07-29T07:00:52;17.60;99.90
8475;DHT22;4274;52.012;8.448;2022-07-29T07:03:18;17.70;99.90
8475;DHT22;4274;52.012;8.448;2022-07-29T07:05:44;17.80;99.90
8475;DHT22;4274;52.012;8.448;2022-07-29T07:08:11;17.80;99.90
8475;DHT22;4274;52.012;8.448;2022-07-29T07:10:37;17.90;99.90
8475;DHT22;4274;52.012;8.448;2022-07-29T07:13:03;18.00;99.90
8475;DHT22;4274;52.012;8.448;2022-07-29T07:15:29;18.10;99.90
8475;DHT22;4274;52.012;8.448;2022-07-29T07:17:55;18.20;99.90
8475;DHT22;4274;52.012;8.448;2022-07-29T07:20:21;18.40;99.90
8475;DHT22;4274;52.012;8.448;2022-07-29T07:22:46;18.50;99.90
8475;DHT22;4274;52.012;8.448;2022-07-29T07:25:12;18.60;99.90
8475;DHT22;4274;52.012;8.448;2022-07-29T07:27:38;18.60;99.90
8475;DHT22;4274;52.012;8.448;2022-07-29T07:30:06;18.60;99.90
8475;DHT22;4274;52.012;8.448;2022-07-29T07:32:33;18.60;99.90
8475;DHT22;4274;52.012;8.448;2022-07-29T07:34:58;18.60;99.90
8475;DHT22;4274;52.012;8.448;2022-07-29T07:37:25;18.60;99.90
8475;DHT22;4274;52.012;8.448;2022-07-29T07:39:51;18.40;99.90
8475;DHT22;4274;52.012;8.448;2022-07-29T07:42:18;18.50;99.90
8475;DHT22;4274;52.012;8.448;2022-07-29T07:44:43;18.50;99.90
8475;DHT22;4274;52.012;8.448;2022-07-29T07:47:11;18.50;99.90
8475;DHT22;4274;52.012;8.448;2022-07-29T07:49:36;18.50;99.90
8475;DHT22;4274;52.012;8.448;2022-07-29T07:52:02;18.60;99.90
8475;DHT22;4274;52.012;8.448;2022-07-29T07:54:28;18.70;99.90
8475;DHT22;4274;52.012;8.448;2022-07-29T07:56:54;18.80;99.90
8475;DHT22;4274;52.012;8.448;2022-07-29T07:59:19;18.90;99.90
8475;DHT22;4274;52.012;8.448;2022-07-29T08:01:45;18.90;99.90
8475;DHT22;4274;52.012;8.448;2022-07-29T08:04:10;19.00;99.90
8475;DHT22;4274;52.012;8.448;2022-07-29T08:06:36;19.00;99.90
8475;DHT22;4274;52.012;8.448;2022-07-29T08:09:03;19.20;99.90
8475;DHT22;4274;52.012;8.448;2022-07-29T08:11:29;19.40;99.90
8475;DHT22;4274;52.012;8.448;2022-07-29T08:13:55;19.60;99.90
8475;DHT22;4274;52.012;8.448;2022-07-29T08:16:21;19.70;99.90
8475;DHT22;4274;52.012;8.448;2022-07-29T08:18:47;19.70;99.90
8475;DHT22;4274;52.012;8.448;2022-07-29T08:21:16;19.90;99.90
8475;DHT22;4274;52.012;8.448;2022-07-29T08:23:45;20.10;99.90
8475;DHT22;4274;52.012;8.448;2022-07-29T08:26:15;20.30;99.90
8475;DHT22;4274;52.012;8.448;2022-07-29T08:28:42;20.70;99.90
8475;DHT22;4274;52.012;8.448;2022-07-29T08:31:12;21.10;99.90
8475;DHT22;4274;52.012;8.448;2022-07-29T08:33:38;21.60;99.90
8475;DHT22;4274;52.012;8.448;2022-07-29T08:36:05;22.10;99.90
8475;DHT22;4274;52.012;8.448;2022-07-29T08:38:31;22.40;99.90
8475;DHT22;4274;52.012;8.448;2022-07-29T08:40:58;22.50;98.60
8475;DHT22;4274;52.012;8.448;2022-07-29T08:43:25;22.40;96.80
8475;DHT22;4274;52.012;8.448;2022-07-29T08:45:51;22.30;96.90
8475;DHT22;4274;52.012;8.448;2022-07-29T08:48:19;22.40;96.90
8475;DHT22;4274;52.012;8.448;2022-07-29T08:50:46;22.50;96.80
8475;DHT22;4274;52.012;8.448;2022-07-29T08:53:14;22.50;95.20
8475;DHT22;4274;52.012;8.448;2022-07-29T08:55:42;22.50;94.40
8475;DHT22;4274;52.012;8.448;2022-07-29T08:58:09;22.50;95.30
8475;DHT22;4274;52.012;8.448;2022-07-29T09:00:37;22.80;95.40
8475;DHT22;4274;52.012;8.448;2022-07-29T09:03:04;23.10;94.60
8475;DHT22;4274;52.012;8.448;2022-07-29T09:05:31;23.50;94.10
8475;DHT22;4274;52.012;8.448;2022-07-29T09:07:58;23.70;92.50
8475;DHT22;4274;52.012;8.448;2022-07-29T09:10:24;23.80;93.10
8475;DHT22;4274;52.012;8.448;2022-07-29T09:12:49;24.20;93.70
8475;DHT22;4274;52.012;8.448;2022-07-29T09:15:15;24.40;92.40
8475;DHT22;4274;52.012;8.448;2022-07-29T09:17:45;24.70;91.60
8475;DHT22;4274;52.012;8.448;2022-07-29T09:20:16;24.90;92.20
8475;DHT22;4274;52.012;8.448;2022-07-29T09:22:42;25.00;91.20
8475;DHT22;4274;52.012;8.448;2022-07-29T09:25:08;25.10;91.50
8475;DHT22;4274;52.012;8.448;2022-07-29T09:27:34;25.20;91.50
8475;DHT22;4274;52.012;8.448;2022-07-29T09:30:07;25.50;91.00
8475;DHT22;4274;52.012;8.448;2022-07-29T09:32:55;25.80;91.00
8475;DHT22;4274;52.012;8.448;2022-07-29T09:35:23;26.00;90.20
8475;DHT22;4274;52.012;8.448;2022-07-29T09:37:50;26.50;90.60
8475;DHT22;4274;52.012;8.448;2022-07-29T09:40:26;26.90;89.50
8475;DHT22;4274;52.012;8.448;2022-07-29T09:42:52;27.40;88.50
8475;DHT22;4274;52.012;8.448;2022-07-29T09:45:33;27.90;88.10
8475;DHT22;4274;52.012;8.448;2022-07-29T09:47:59;28.20;85.80
8475;DHT22;4274;52.012;8.448;2022-07-29T09:50:42;28.20;87.40
8475;DHT22;4274;52.012;8.448;2022-07-29T09:53:08;28.50;84.30
8475;DHT22;4274;52.012;8.448;2022-07-29T09:55:52;28.20;83.00
8475;DHT22;4274;52.012;8.448;2022-07-29T09:58:19;27.50;85.00
8475;DHT22;4274;52.012;8.448;2022-07-29T10:00:46;27.10;86.40
8475;DHT22;4274;52.012;8.448;2022-07-29T10:03:12;26.90;84.40
8475;DHT22;4274;52.012;8.448;2022-07-29T10:05:38;26.60;85.50
8475;DHT22;4274;52.012;8.448;2022-07-29T10:08:05;26.60;85.50
8475;DHT22;4274;52.012;8.448;2022-07-29T10:10:33;26.40;84.50
8475;DHT22;4274;52.012;8.448;2022-07-29T10:13:08;26.00;86.50
8475;DHT22;4274;52.012;8.448;2022-07-29T10:15:36;25.80;87.10
8475;DHT22;4274;52.012;8.448;2022-07-29T10:18:04;25.80;87.20
8475;DHT22;4274;52.012;8.448;2022-07-29T10:20:30;25.80;88.30
8475;DHT22;4274;52.012;8.448;2022-07-29T10:22:57;26.20;87.90
8475;DHT22;4274;52.012;8.448;2022-07-29T10:25:23;26.50;85.80
8475;DHT22;4274;52.012;8.448;2022-07-29T10:27:50;26.40;85.30
8475;DHT22;4274;52.012;8.448;2022-07-29T10:30:21;26.40;84.40
8475;DHT22;4274;52.012;8.448;2022-07-29T10:38:27;25.80;86.10
8475;DHT22;4274;52.012;8.448;2022-07-29T10:46:23;24.70;87.80
8475;DHT22;4274;52.012;8.448;2022-07-29T10:52:02;24.80;89.10
8475;DHT22;4274;52.012;8.448;2022-07-29T10:54:43;25.10;89.60
8475;DHT22;4274;52.012;8.448;2022-07-29T11:05:18;25.50;89.40
8475;DHT22;4274;52.012;8.448;2022-07-29T11:10:43;26.20;87.80
8475;DHT22;4274;52.012;8.448;2022-07-29T11:13:08;26.30;86.60
8475;DHT22;4274;52.012;8.448;2022-07-29T11:15:54;26.60;87.20
8475;DHT22;4274;52.012;8.448;2022-07-29T11:18:20;27.20;92.00
8475;DHT22;4274;52.012;8.448;2022-07-29T11:20:50;27.50;86.80
8475;DHT22;4274;52.012;8.448;2022-07-29T11:28:51;27.60;85.90
8475;DHT22;4274;52.012;8.448;2022-07-29T11:31:39;27.50;88.50
8475;DHT22;4274;52.012;8.448;2022-07-29T11:45:24;25.80;87.20
8475;DHT22;4274;52.012;8.448;2022-07-29T11:47:55;25.90;86.20
8475;DHT22;4274;52.012;8.448;2022-07-29T11:50:32;25.90;84.90
8475;DHT22;4274;52.012;8.448;2022-07-29T11:52:58;25.90;83.90
8475;DHT22;4274;52.012;8.448;2022-07-29T11:55:25;26.00;84.50
8475;DHT22;4274;52.012;8.448;2022-07-29T11:57:58;25.90;83.60
8475;DHT22;4274;52.012;8.448;2022-07-29T12:00:29;25.90;83.80
8475;DHT22;4274;52.012;8.448;2022-07-29T12:02:55;26.00;85.00
8475;DHT22;4274;52.012;8.448;2022-07-29T12:05:31;26.20;85.10
8475;DHT22;4274;52.012;8.448;2022-07-29T12:10:32;26.40;85.50
8475;DHT22;4274;52.012;8.448;2022-07-29T12:12:58;26.70;88.90
8475;DHT22;4274;52.012;8.448;2022-07-29T12:15:23;27.00;84.60
8475;DHT22;4274;52.012;8.448;2022-07-29T12:17:50;27.10;84.00
8475;DHT22;4274;52.012;8.448;2022-07-29T12:20:25;26.90;83.80
8475;DHT22;4274;52.012;8.448;2022-07-29T12:22:51;27.00;83.80
8475;DHT22;4274;52.012;8.448;2022-07-29T12:25:19;27.00;83.30
8475;DHT22;4274;52.012;8.448;2022-07-29T12:27:45;26.80;82.80
8475;DHT22;4274;52.012;8.448;2022-07-29T12:30:13;26.80;83.20
8475;DHT22;4274;52.012;8.448;2022-07-29T12:35:15;26.60;81.90
8475;DHT22;4274;52.012;8.448;2022-07-29T12:37:44;26.50;82.90
8475;DHT22;4274;52.012;8.448;2022-07-29T12:40:13;26.40;83.60
8475;DHT22;4274;52.012;8.448;2022-07-29T12:42:40;26.40;83.50
8475;DHT22;4274;52.012;8.448;2022-07-29T12:45:06;26.50;84.20
8475;DHT22;4274;52.012;8.448;2022-07-29T12:47:32;26.40;83.70
8475;DHT22;4274;52.012;8.448;2022-07-29T12:50:09;26.50;83.10
8475;DHT22;4274;52.012;8.448;2022-07-29T12:52:36;26.50;84.00
8475;DHT22;4274;52.012;8.448;2022-07-29T12:55:02;26.40;84.90
8475;DHT22;4274;52.012;8.448;2022-07-29T12:57:28;26.30;84.30
8475;DHT22;4274;52.012;8.448;2022-07-29T13:02:25;26.00;85.40
8475;DHT22;4274;52.012;8.448;2022-07-29T13:04:59;25.90;84.70
8475;DHT22;4274;52.012;8.448;2022-07-29T13:07:29;25.70;86.00
8475;DHT22;4274;52.012;8.448;2022-07-29T13:12:36;25.50;87.20
8475;DHT22;4274;52.012;8.448;2022-07-29T13:15:12;25.50;86.50
8475;DHT22;4274;52.012;8.448;2022-07-29T13:17:42;25.50;87.10
8475;DHT22;4274;52.012;8.448;2022-07-29T13:20:11;25.40;87.30
8475;DHT22;4274;52.012;8.448;2022-07-29T13:22:41;25.20;87.40
8475;DHT22;4274;52.012;8.448;2022-07-29T13:25:08;25.10;88.80
8475;DHT22;4274;52.012;8.448;2022-07-29T13:27:35;24.90;87.40
8475;DHT22;4274;52.012;8.448;2022-07-29T13:30:05;24.90;88.40
8475;DHT22;4274;52.012;8.448;2022-07-29T13:32:31;24.60;88.80
8475;DHT22;4274;52.012;8.448;2022-07-29T13:35:01;24.50;89.10
8475;DHT22;4274;52.012;8.448;2022-07-29T13:37:27;24.40;88.50
8475;DHT22;4274;52.012;8.448;2022-07-29T13:39:57;24.40;89.10
8475;DHT22;4274;52.012;8.448;2022-07-29T13:42:24;24.30;89.90
8475;DHT22;4274;52.012;8.448;2022-07-29T13:44:50;24.30;91.20
8475;DHT22;4274;52.012;8.448;2022-07-29T13:47:18;24.20;92.10
8475;DHT22;4274;52.012;8.448;2022-07-29T13:49:43;23.90;92.50
8475;DHT22;4274;52.012;8.448;2022-07-29T13:52:09;23.80;92.80
8475;DHT22;4274;52.012;8.448;2022-07-29T13:54:35;23.60;92.70
8475;DHT22;4274;52.012;8.448;2022-07-29T13:57:04;23.50;92.80
8475;DHT22;4274;52.012;8.448;2022-07-29T13:59:30;23.50;93.20
8475;DHT22;4274;52.012;8.448;2022-07-29T14:01:56;23.50;93.70
8475;DHT22;4274;52.012;8.448;2022-07-29T14:04:21;23.50;93.10
8475;DHT22;4274;52.012;8.448;2022-07-29T14:06:49;23.50;93.30
8475;DHT22;4274;52.012;8.448;2022-07-29T14:09:14;23.60;92.90
8475;DHT22;4274;52.012;8.448;2022-07-29T14:11:40;23.70;92.50
8475;DHT22;4274;52.012;8.448;2022-07-29T14:14:06;23.70;93.00
8475;DHT22;4274;52.012;8.448;2022-07-29T14:16:32;23.80;92.70
8475;DHT22;4274;52.012;8.448;2022-07-29T14:18:58;23.80;93.10
8475;DHT22;4274;52.012;8.448;2022-07-29T14:21:23;23.90;92.50
8475;DHT22;4274;52.012;8.448;2022-07-29T14:23:49;24.00;92.90
8475;DHT22;4274;52.012;8.448;2022-07-29T14:26:15;24.10;92.80
8475;DHT22;4274;52.012;8.448;2022-07-29T14:28:40;24.20;93.20
8475;DHT22;4274;52.012;8.448;2022-07-29T14:31:06;24.30;94.40
8475;DHT22;4274;52.012;8.448;2022-07-29T14:33:31;24.40;93.70
8475;DHT22;4274;52.012;8.448;2022-07-29T14:35:57;24.40;94.20
8475;DHT22;4274;52.012;8.448;2022-07-29T14:38:23;24.40;94.00
8475;DHT22;4274;52.012;8.448;2022-07-29T14:40:49;24.50;94.30
8475;DHT22;4274;52.012;8.448;2022-07-29T14:43:14;24.40;93.50
8475;DHT22;4274;52.012;8.448;2022-07-29T14:45:40;24.40;93.80
8475;DHT22;4274;52.012;8.448;2022-07-29T14:48:06;24.30;94.10
8475;DHT22;4274;52.012;8.448;2022-07-29T14:50:32;24.20;93.80
8475;DHT22;4274;52.012;8.448;2022-07-29T14:52:58;24.20;93.10
8475;DHT22;4274;52.012;8.448;2022-07-29T14:55:24;24.10;93.80
8475;DHT22;4274;52.012;8.448;2022-07-29T14:57:50;24.00;93.90
8475;DHT22;4274;52.012;8.448;2022-07-29T15:00:16;23.90;94.00
8475;DHT22;4274;52.012;8.448;2022-07-29T15:02:42;23.80;93.80
8475;DHT22;4274;52.012;8.448;2022-07-29T15:05:08;23.80;93.60
8475;DHT22;4274;52.012;8.448;2022-07-29T15:07:33;23.70;93.70
8475;DHT22;4274;52.012;8.448;2022-07-29T15:09:59;23.70;94.30
8475;DHT22;4274;52.012;8.448;2022-07-29T15:12:25;23.70;93.60
8475;DHT22;4274;52.012;8.448;2022-07-29T15:14:50;23.70;94.00
8475;DHT22;4274;52.012;8.448;2022-07-29T15:17:16;23.60;94.40
8475;DHT22;4274;52.012;8.448;2022-07-29T15:19:41;23.60;93.90
8475;DHT22;4274;52.012;8.448;2022-07-29T15:22:07;23.50;93.50
8475;DHT22;4274;52.012;8.448;2022-07-29T15:24:32;23.50;93.60
8475;DHT22;4274;52.012;8.448;2022-07-29T15:26:58;23.40;93.50
8475;DHT22;4274;52.012;8.448;2022-07-29T15:29:24;23.40;93.80
8475;DHT22;4274;52.012;8.448;2022-07-29T15:31:49;23.40;93.80
8475;DHT22;4274;52.012;8.448;2022-07-29T15:34:15;23.30;93.90
8475;DHT22;4274;52.012;8.448;2022-07-29T15:36:41;23.30;93.90
8475;DHT22;4274;52.012;8.448;2022-07-29T15:39:06;23.20;94.20
8475;DHT22;4274;52.012;8.448;2022-07-29T15:41:33;23.10;94.40
8475;DHT22;4274;52.012;8.448;2022-07-29T15:43:59;23.10;94.50
8475;DHT22;4274;52.012;8.448;2022-07-29T15:46:24;23.10;94.80
8475;DHT22;4274;52.012;8.448;2022-07-29T15:49:09;23.00;95.10
8475;DHT22;4274;52.012;8.448;2022-07-29T15:51:34;23.00;95.10
8475;DHT22;4274;52.012;8.448;2022-07-29T15:54:02;22.90;95.30
8475;DHT22;4274;52.012;8.448;2022-07-29T15:56:28;22.90;95.20
8475;DHT22;4274;52.012;8.448;2022-07-29T15:58:54;22.80;95.20
8475;DHT22;4274;52.012;8.448;2022-07-29T16:01:19;22.80;95.20
8475;DHT22;4274;52.012;8.448;2022-07-29T16:03:45;22.80;95.30
8475;DHT22;4274;52.012;8.448;2022-07-29T16:06:10;22.70;95.60
8475;DHT22;4274;52.012;8.448;2022-07-29T16:08:36;22.70;95.40
8475;DHT22;4274;52.012;8.448;2022-07-29T16:11:02;22.70;95.40
8475;DHT22;4274;52.012;8.448;2022-07-29T16:13:27;22.60;95.40
8475;DHT22;4274;52.012;8.448;2022-07-29T16:15:53;22.60;95.60
8475;DHT22;4274;52.012;8.448;2022-07-29T16:18:18;22.50;96.10
8475;DHT22;4274;52.012;8.448;2022-07-29T16:20:44;22.50;96.40
8475;DHT22;4274;52.012;8.448;2022-07-29T16:23:09;22.40;96.50
8475;DHT22;4274;52.012;8.448;2022-07-29T16:25:38;22.30;96.70
8475;DHT22;4274;52.012;8.448;2022-07-29T16:28:04;22.20;96.50
8475;DHT22;4274;52.012;8.448;2022-07-29T16:30:30;22.10;96.70
8475;DHT22;4274;52.012;8.448;2022-07-29T16:32:56;22.00;96.90
8475;DHT22;4274;52.012;8.448;2022-07-29T16:35:21;21.90;96.90
8475;DHT22;4274;52.012;8.448;2022-07-29T16:37:47;21.80;96.70
8475;DHT22;4274;52.012;8.448;2022-07-29T16:40:12;21.70;97.00
8475;DHT22;4274;52.012;8.448;2022-07-29T16:42:38;21.60;96.90
8475;DHT22;4274;52.012;8.448;2022-07-29T16:45:05;21.60;97.40
8475;DHT22;4274;52.012;8.448;2022-07-29T16:47:31;21.50;97.30
8475;DHT22;4274;52.012;8.448;2022-07-29T16:49:56;21.40;97.70
8475;DHT22;4274;52.012;8.448;2022-07-29T16:52:22;21.30;98.00
8475;DHT22;4274;52.012;8.448;2022-07-29T16:54:47;21.20;98.10
8475;DHT22;4274;52.012;8.448;2022-07-29T16:57:13;21.20;98.20
8475;DHT22;4274;52.012;8.448;2022-07-29T16:59:39;21.20;98.30
8475;DHT22;4274;52.012;8.448;2022-07-29T17:02:04;21.10;98.50
8475;DHT22;4274;52.012;8.448;2022-07-29T17:04:30;21.10;98.60